createdAt,value
2019-02-17T00:00:38.878Z,22.90
2019-02-17T00:03:08.206Z,17.02
2019-02-17T00:05:37.533Z,22.77
2019-02-17T00:08:06.848Z,16.95
2019-02-17T00:10:36.175Z,21.80
2019-02-17T00:13:05.502Z,23.20
2019-02-17T00:15:34.898Z,19.25
2019-02-17T00:18:04.230Z,20.27
2019-02-17T00:20:33.548Z,20.57
2019-02-17T00:23:02.885Z,20.92
2019-02-17T00:25:32.205Z,26.15
2019-02-17T00:28:01.530Z,16.65
2019-02-17T00:30:30.850Z,20.12
2019-02-17T00:33:00.179Z,20.12
2019-02-17T00:35:29.510Z,18.15
2019-02-17T00:37:58.831Z,29.20
2019-02-17T00:40:28.151Z,17.70
2019-02-17T00:42:57.473Z,23.18
2019-02-17T00:45:26.798Z,13.60
2019-02-17T00:47:56.171Z,16.67
2019-02-17T00:50:25.498Z,27.20
2019-02-17T00:52:54.815Z,23.12
2019-02-17T00:55:24.140Z,17.17
2019-02-17T00:57:53.462Z,20.72
2019-02-17T01:00:22.787Z,15.28
2019-02-17T01:02:52.115Z,20.15
2019-02-17T01:05:21.436Z,17.12
2019-02-17T01:07:50.759Z,17.12
2019-02-17T01:10:20.079Z,21.73
2019-02-17T01:12:49.402Z,12.40
2019-02-17T01:15:18.737Z,17.15
2019-02-17T01:17:48.051Z,17.42
2019-02-17T01:20:17.549Z,24.70
2019-02-17T01:22:46.885Z,14.50
2019-02-17T01:25:16.280Z,14.90
2019-02-17T01:27:45.611Z,14.23
2019-02-17T01:30:15.165Z,17.98
2019-02-17T01:32:44.552Z,16.67
2019-02-17T01:35:13.871Z,15.70
2019-02-17T01:37:43.201Z,15.93
2019-02-17T01:40:12.843Z,19.80
2019-02-17T01:42:42.169Z,15.03
2019-02-17T01:45:11.803Z,13.83
2019-02-17T01:47:41.118Z,13.55
2019-02-17T01:50:10.471Z,16.07
2019-02-17T01:52:39.819Z,15.85
2019-02-17T01:55:09.352Z,21.23
2019-02-17T01:57:38.683Z,11.90
2019-02-17T02:00:10.202Z,15.48
2019-02-17T02:02:39.527Z,14.03
2019-02-17T02:05:08.851Z,14.38
2019-02-17T02:07:38.182Z,18.77
2019-02-17T02:10:07.906Z,14.63
2019-02-17T02:12:37.296Z,12.37
2019-02-17T02:15:07.204Z,12.20
2019-02-17T02:17:36.546Z,15.93
2019-02-17T02:20:06.938Z,17.62
2019-02-17T02:22:37.159Z,11.85
2019-02-17T02:25:06.929Z,11.55
2019-02-17T02:27:36.250Z,9.78
2019-02-17T02:30:06.190Z,20.92
2019-02-17T02:32:35.582Z,10.68
2019-02-17T02:35:05.412Z,8.75
2019-02-17T02:37:34.762Z,9.13
2019-02-17T02:40:04.265Z,8.43
2019-02-17T02:42:33.650Z,8.93
2019-02-17T02:45:02.973Z,8.45
2019-02-17T02:47:32.309Z,6.90
2019-02-17T02:50:01.703Z,10.43
2019-02-17T02:52:31.030Z,12.15
2019-02-17T02:55:00.367Z,10.30
2019-02-17T02:57:29.695Z,9.25
2019-02-17T02:59:59.142Z,13.58
2019-02-17T03:02:28.531Z,8.85
2019-02-17T03:04:57.945Z,12.35
2019-02-17T03:07:27.267Z,8.20
2019-02-17T03:09:56.582Z,7.28
2019-02-17T03:12:25.905Z,5.83
2019-02-17T03:14:55.219Z,9.13
2019-02-17T03:17:24.539Z,8.63
2019-02-17T03:19:53.860Z,8.55
2019-02-17T03:22:23.179Z,9.65
2019-02-17T03:24:52.498Z,10.63
2019-02-17T03:27:21.818Z,6.70
2019-02-17T03:29:51.141Z,11.28
2019-02-17T03:32:20.455Z,13.20
2019-02-17T03:34:49.765Z,8.75
2019-02-17T03:37:19.088Z,17.25
2019-02-17T03:39:48.430Z,11.65
2019-02-17T03:42:17.756Z,11.10
2019-02-17T03:44:47.075Z,8.85
2019-02-17T03:47:16.410Z,7.45
2019-02-17T03:49:45.814Z,15.38
2019-02-17T03:52:15.144Z,11.97
2019-02-17T03:54:44.534Z,8.40
2019-02-17T03:57:13.859Z,7.87
2019-02-17T03:59:43.268Z,7.50
2019-02-17T04:02:12.672Z,5.22
2019-02-17T04:04:41.990Z,6.40
2019-02-17T04:07:11.311Z,2.85
2019-02-17T04:09:40.639Z,6.37
2019-02-17T04:12:10.030Z,18.60
2019-02-17T04:14:39.426Z,6.85
2019-02-17T04:17:08.768Z,8.78
2019-02-17T04:19:38.079Z,5.90
2019-02-17T04:22:07.405Z,8.03
2019-02-17T04:24:36.714Z,12.47
2019-02-17T04:27:06.031Z,6.35
2019-02-17T04:29:35.347Z,7.87
2019-02-17T04:32:04.674Z,8.65
2019-02-17T04:34:33.983Z,5.00
2019-02-17T04:37:03.306Z,8.48
2019-02-17T04:39:32.624Z,6.65
2019-02-17T04:42:01.949Z,10.93
2019-02-17T04:44:31.272Z,6.33
2019-02-17T04:47:00.596Z,5.15
2019-02-17T04:49:29.914Z,5.20
2019-02-17T04:51:59.230Z,5.17
2019-02-17T04:54:28.564Z,8.50
2019-02-17T04:56:57.888Z,5.83
2019-02-17T04:59:27.211Z,4.97
2019-02-17T05:01:56.539Z,3.33
2019-02-17T05:04:25.861Z,4.20
2019-02-17T05:06:55.180Z,3.55
2019-02-17T05:09:24.502Z,3.77
2019-02-17T05:11:53.823Z,3.30
2019-02-17T05:14:23.144Z,3.87
2019-02-17T05:16:52.469Z,3.10
2019-02-17T05:19:21.868Z,6.87
2019-02-17T05:21:51.263Z,3.92
2019-02-17T05:24:20.621Z,5.28
2019-02-17T05:26:49.953Z,4.45
2019-02-17T05:29:19.277Z,8.78
2019-02-17T05:31:48.639Z,1.65
2019-02-17T05:34:17.951Z,8.48
2019-02-17T05:36:47.323Z,3.62
2019-02-17T05:39:16.670Z,3.37
2019-02-17T05:41:45.991Z,8.33
2019-02-17T05:44:15.315Z,4.62
2019-02-17T05:46:44.666Z,4.03
2019-02-17T05:49:13.990Z,3.12
2019-02-17T05:51:43.396Z,6.42
2019-02-17T05:54:12.816Z,5.22
2019-02-17T05:56:42.138Z,2.85
2019-02-17T05:59:11.471Z,3.05
2019-02-17T06:01:40.820Z,3.20
2019-02-17T06:04:10.211Z,2.30
2019-02-17T06:06:39.632Z,2.90
2019-02-17T06:09:08.959Z,4.12
2019-02-17T06:11:38.290Z,4.03
2019-02-17T06:14:07.682Z,4.62
2019-02-17T06:16:37.014Z,13.28
2019-02-17T06:19:06.339Z,3.27
2019-02-17T06:21:35.663Z,2.15
2019-02-17T06:24:04.990Z,3.15
2019-02-17T06:26:34.319Z,8.58
2019-02-17T06:29:03.642Z,9.98
2019-02-17T06:31:32.997Z,2.33
2019-02-17T06:34:02.319Z,5.25
2019-02-17T06:36:31.646Z,2.00
2019-02-17T06:39:00.975Z,2.33
2019-02-17T06:41:30.300Z,3.98
2019-02-17T06:43:59.715Z,4.03
2019-02-17T06:46:32.832Z,4.17
2019-02-17T06:49:02.158Z,7.17
2019-02-17T06:51:31.566Z,1.98
2019-02-17T06:54:00.897Z,3.83
2019-02-17T06:56:40.602Z,3.58
2019-02-17T06:59:09.941Z,9.38
2019-02-17T07:01:39.266Z,4.72
2019-02-17T07:04:08.595Z,2.52
2019-02-17T07:06:41.399Z,1.70
2019-02-17T07:09:10.814Z,1.77
2019-02-17T07:11:40.129Z,1.90
2019-02-17T07:14:09.450Z,2.30
2019-02-17T07:16:38.776Z,1.02
2019-02-17T07:19:08.101Z,2.05
2019-02-17T07:21:37.498Z,1.80
2019-02-17T07:24:06.814Z,7.08
2019-02-17T07:26:36.134Z,1.60
2019-02-17T07:29:05.639Z,1.42
2019-02-17T07:31:35.449Z,8.90
2019-02-17T07:34:04.819Z,1.85
2019-02-17T07:36:34.130Z,1.12
2019-02-17T07:39:05.438Z,2.22
2019-02-17T07:41:34.770Z,3.20
2019-02-17T07:44:04.088Z,2.17
2019-02-17T07:46:33.410Z,1.77
2019-02-17T07:49:02.804Z,2.52
2019-02-17T07:51:32.126Z,2.30
2019-02-17T07:54:01.511Z,1.25
2019-02-17T07:56:30.858Z,1.15
2019-02-17T07:59:00.190Z,2.08
2019-02-17T08:01:29.614Z,1.40
2019-02-17T08:03:59.008Z,1.62
2019-02-17T08:06:28.356Z,9.80
2019-02-17T08:08:58.080Z,3.80
2019-02-17T08:11:27.398Z,2.70
2019-02-17T08:13:56.802Z,3.27
2019-02-17T08:16:26.127Z,1.25
2019-02-17T08:18:55.449Z,1.95
2019-02-17T08:21:24.760Z,9.98
2019-02-17T08:23:54.089Z,6.47
2019-02-17T08:26:23.495Z,4.65
2019-02-17T08:28:52.901Z,1.72
2019-02-17T08:31:22.288Z,2.08
2019-02-17T08:33:51.610Z,1.10
2019-02-17T08:36:20.923Z,3.62
2019-02-17T08:38:50.243Z,2.65
2019-02-17T08:41:19.561Z,1.22
2019-02-17T08:43:49.050Z,2.35
2019-02-17T08:46:18.373Z,3.37
2019-02-17T08:48:47.682Z,3.08
2019-02-17T08:51:16.998Z,1.80
2019-02-17T08:53:46.318Z,1.15
2019-02-17T08:56:15.641Z,3.65
2019-02-17T08:58:45.042Z,0.85
2019-02-17T09:01:14.362Z,1.45
2019-02-17T09:03:43.698Z,3.55
2019-02-17T09:06:13.018Z,1.30
2019-02-17T09:08:42.347Z,1.85
2019-02-17T09:11:11.734Z,1.50
2019-02-17T09:13:41.063Z,3.33
2019-02-17T09:16:10.384Z,1.42
2019-02-17T09:18:39.710Z,2.10
2019-02-17T09:21:09.037Z,1.67
2019-02-17T09:23:38.422Z,6.42
2019-02-17T09:26:07.786Z,6.55
2019-02-17T09:28:37.126Z,2.80
2019-02-17T09:31:06.451Z,1.20
2019-02-17T09:33:35.775Z,7.85
2019-02-17T09:36:05.088Z,4.45
2019-02-17T09:38:34.400Z,1.12
2019-02-17T09:41:03.724Z,8.73
2019-02-17T09:43:33.043Z,3.12
2019-02-17T09:46:02.354Z,2.25
2019-02-17T09:48:31.755Z,1.17
2019-02-17T09:51:01.155Z,1.92
2019-02-17T09:53:30.473Z,1.85
2019-02-17T09:56:00.070Z,3.80
2019-02-17T09:58:29.396Z,1.45
2019-02-17T10:00:58.718Z,2.65
2019-02-17T10:03:28.077Z,3.72
2019-02-17T10:05:57.456Z,2.60
2019-02-17T10:08:26.775Z,2.08
2019-02-17T10:10:56.115Z,1.70
2019-02-17T10:13:25.499Z,5.53
2019-02-17T10:15:54.900Z,4.87
2019-02-17T10:18:24.222Z,1.37
2019-02-17T10:20:53.620Z,1.60
2019-02-17T10:23:23.021Z,1.27
2019-02-17T10:25:52.434Z,2.25
2019-02-17T10:28:21.804Z,5.78
2019-02-17T10:30:51.167Z,1.30
2019-02-17T10:33:20.506Z,1.50
2019-02-17T10:35:49.832Z,4.17
2019-02-17T10:38:19.165Z,4.37
2019-02-17T10:40:48.509Z,0.70
2019-02-17T10:43:17.907Z,3.70
2019-02-17T10:45:47.258Z,4.30
2019-02-17T10:48:16.600Z,2.92
2019-02-17T10:50:45.912Z,1.55
2019-02-17T10:53:14.627Z,1.60
2019-02-17T10:55:43.330Z,6.08
2019-02-17T10:58:12.039Z,6.65
2019-02-17T11:00:40.745Z,5.95
2019-02-17T11:03:09.814Z,1.35
2019-02-17T11:05:38.517Z,1.85
2019-02-17T11:08:07.211Z,6.05
2019-02-17T11:10:35.926Z,3.92
2019-02-17T11:13:04.659Z,3.72
2019-02-17T11:15:33.359Z,3.90
2019-02-17T11:18:02.103Z,1.55
2019-02-17T11:20:30.802Z,7.78
2019-02-17T11:22:59.551Z,3.87
2019-02-17T11:25:28.254Z,4.85
2019-02-17T11:27:56.955Z,7.53
2019-02-17T11:30:25.658Z,1.50
2019-02-17T11:32:57.850Z,2.12
2019-02-17T11:35:24.768Z,2.77
2019-02-17T11:37:53.494Z,9.50
2019-02-17T11:40:22.262Z,1.02
2019-02-17T11:42:50.971Z,5.75
2019-02-17T11:45:19.772Z,6.03
2019-02-17T11:47:48.480Z,1.62
2019-02-17T11:50:17.192Z,4.20
2019-02-17T11:52:45.899Z,7.03
2019-02-17T11:55:14.708Z,1.30
2019-02-17T11:57:43.493Z,2.25
2019-02-17T12:00:13.767Z,3.67
2019-02-17T12:02:42.495Z,1.65
2019-02-17T12:05:11.400Z,1.07
2019-02-17T12:07:40.175Z,2.50
2019-02-17T12:10:09.404Z,2.60
2019-02-17T12:12:38.114Z,3.75
2019-02-17T12:15:07.366Z,2.67
2019-02-17T12:17:36.066Z,2.45
2019-02-17T12:20:28.874Z,3.85
2019-02-17T12:23:01.970Z,6.22
2019-02-17T12:25:45.006Z,5.40
2019-02-17T12:28:20.855Z,5.80
2019-02-17T12:30:50.832Z,4.58
2019-02-17T12:33:21.772Z,3.42
2019-02-17T12:35:49.966Z,3.20
2019-02-17T12:38:18.653Z,4.08
2019-02-17T12:40:47.354Z,4.53
2019-02-17T12:43:16.140Z,1.57
2019-02-17T12:45:44.855Z,2.87
2019-02-17T12:48:13.557Z,2.70
2019-02-17T12:50:42.267Z,1.67
2019-02-17T12:53:10.969Z,5.12
2019-02-17T12:55:39.674Z,8.55
2019-02-17T12:58:08.374Z,3.27
2019-02-17T13:00:37.078Z,3.90
2019-02-17T13:03:05.786Z,2.45
2019-02-17T13:05:34.500Z,3.55
2019-02-17T13:08:03.203Z,2.47
2019-02-17T13:10:31.914Z,4.25
2019-02-17T13:13:00.646Z,3.67
2019-02-17T13:15:29.351Z,2.77
2019-02-17T13:17:58.058Z,2.77
2019-02-17T13:20:26.773Z,8.35
2019-02-17T13:22:55.482Z,1.25
2019-02-17T13:25:24.183Z,1.65
2019-02-17T13:27:52.895Z,4.75
2019-02-17T13:30:21.671Z,4.70
2019-02-17T13:32:50.439Z,2.02
2019-02-17T13:35:19.142Z,9.28
2019-02-17T13:37:47.865Z,3.62
2019-02-17T13:40:16.562Z,4.33
2019-02-17T13:42:45.271Z,4.67
2019-02-17T13:45:13.980Z,1.77
2019-02-17T13:47:42.754Z,3.17
2019-02-17T13:50:11.946Z,2.67
2019-02-17T13:52:40.658Z,6.83
2019-02-17T13:55:09.789Z,1.65
2019-02-17T13:57:38.486Z,4.10
2019-02-17T14:00:08.694Z,2.47
2019-02-17T14:02:37.394Z,2.67
2019-02-17T14:05:06.342Z,4.05
2019-02-17T14:07:35.083Z,3.17
2019-02-17T14:10:03.983Z,6.92
2019-02-17T14:12:32.688Z,4.35
2019-02-17T14:15:01.398Z,11.55
2019-02-17T14:17:30.186Z,5.00
2019-02-17T14:19:58.890Z,10.28
2019-02-17T14:22:27.606Z,11.12
2019-02-17T14:24:56.322Z,17.60
2019-02-17T14:27:25.023Z,5.22
2019-02-17T14:29:53.722Z,9.28
2019-02-17T14:32:22.443Z,6.92
2019-02-17T14:34:51.157Z,12.73
2019-02-17T14:37:19.915Z,2.37
2019-02-17T14:39:48.614Z,3.58
2019-02-17T14:42:17.327Z,6.22
2019-02-17T14:44:46.045Z,6.05
2019-02-17T14:47:14.748Z,5.20
2019-02-17T14:49:43.494Z,4.83
2019-02-17T14:52:12.203Z,12.78
2019-02-17T14:54:40.903Z,7.53
2019-02-17T14:57:09.614Z,7.60
2019-02-17T14:59:38.310Z,8.45
2019-02-17T15:02:07.019Z,6.10
2019-02-17T15:04:35.727Z,11.78
2019-02-17T15:07:04.438Z,9.60
2019-02-17T15:09:33.142Z,6.42
2019-02-17T15:12:01.847Z,4.40
2019-02-17T15:14:30.546Z,7.45
2019-02-17T15:16:59.246Z,2.92
2019-02-17T15:19:27.955Z,12.33
2019-02-17T15:21:56.654Z,10.88
2019-02-17T15:24:25.362Z,10.85
2019-02-17T15:26:54.070Z,4.65
2019-02-17T15:29:22.852Z,6.70
2019-02-17T15:31:51.634Z,4.47
2019-02-17T15:34:20.361Z,6.17
2019-02-17T15:36:49.066Z,9.15
2019-02-17T15:39:17.799Z,3.12
2019-02-17T15:41:46.487Z,5.50
2019-02-17T15:44:15.261Z,4.45
2019-02-17T15:46:43.974Z,7.12
2019-02-17T15:49:12.694Z,6.08
2019-02-17T15:51:41.427Z,1.47
2019-02-17T15:54:10.128Z,5.90
2019-02-17T15:56:38.826Z,7.42
2019-02-17T15:59:07.542Z,3.58
2019-02-17T16:01:36.315Z,2.67
2019-02-17T16:04:05.033Z,3.20
2019-02-17T16:06:33.733Z,4.12
2019-02-17T16:09:02.435Z,5.67
2019-02-17T16:11:31.150Z,5.62
2019-02-17T16:13:59.866Z,1.80
2019-02-17T16:16:29.053Z,3.72
2019-02-17T16:18:57.845Z,2.05
2019-02-17T16:21:26.546Z,2.35
2019-02-17T16:23:55.263Z,4.97
2019-02-17T16:26:23.987Z,2.98
2019-02-17T16:28:52.745Z,6.10
2019-02-17T16:31:21.450Z,4.53
2019-02-17T16:33:50.158Z,6.33
2019-02-17T16:36:18.859Z,2.85
2019-02-17T16:38:47.558Z,3.65
2019-02-17T16:41:16.247Z,3.25
2019-02-17T16:43:44.954Z,13.20
2019-02-17T16:46:13.667Z,9.95
2019-02-17T16:48:42.373Z,4.62
2019-02-17T16:51:11.092Z,6.20
2019-02-17T16:53:39.803Z,8.48
2019-02-17T16:56:08.567Z,5.90
2019-02-17T16:58:37.307Z,15.78
2019-02-17T17:01:06.098Z,9.38
2019-02-17T17:03:34.815Z,7.45
2019-02-17T17:06:03.554Z,2.98
2019-02-17T17:08:32.273Z,9.40
2019-02-17T17:11:01.050Z,7.60
2019-02-17T17:13:29.754Z,8.35
2019-02-17T17:15:58.464Z,7.30
2019-02-17T17:18:27.163Z,3.80
2019-02-17T17:20:55.866Z,4.50
2019-02-17T17:23:24.591Z,8.00
2019-02-17T17:25:53.304Z,6.28
2019-02-17T17:28:22.007Z,9.40
2019-02-17T17:30:50.717Z,7.90
2019-02-17T17:33:19.414Z,6.92
2019-02-17T17:35:48.127Z,5.47
2019-02-17T17:38:16.838Z,3.58
2019-02-17T17:40:45.554Z,6.40
2019-02-17T17:43:14.280Z,5.42
2019-02-17T17:45:43.058Z,6.78
2019-02-17T17:48:11.772Z,4.30
2019-02-17T17:50:40.478Z,5.80
2019-02-17T17:53:09.188Z,12.35
2019-02-17T17:55:37.912Z,12.10
2019-02-17T17:58:06.715Z,4.65
2019-02-17T18:00:36.450Z,9.38
2019-02-17T18:03:05.229Z,6.00
2019-02-17T18:05:34.147Z,4.85
2019-02-17T18:08:02.922Z,6.78
2019-02-17T18:10:31.631Z,3.80
2019-02-17T18:13:00.411Z,8.43
2019-02-17T18:15:29.126Z,11.80
2019-02-17T18:17:57.842Z,7.05
2019-02-17T18:20:26.539Z,9.58
2019-02-17T18:22:55.287Z,12.45
2019-02-17T18:25:24.062Z,5.15
